Time,TemperatureF,DewpointF,PressureIn,WindDirection,WindDirectionDegrees,WindSpeedMPH,WindSpeedGustMPH,Humidity,HourlyPrecipIn,Conditions,Clouds,dailyrainin,SoftwareType,DateUTC
2013-01-30 00:07:00,52.0,19.9,29.79,West,279,12.0,12.0,28,0.00,,,0.00,Wunderground v.1.15,2013-01-30 06:07:00,
2013-01-30 00:12:00,52.0,19.9,29.80,West,275,12.0,12.0,28,0.00,,,0.00,Wunderground v.1.15,2013-01-30 06:12:00,
2013-01-30 00:17:00,51.9,20.6,29.81,West,273,12.0,12.0,29,0.00,,,0.00,Wunderground v.1.15,2013-01-30 06:17:00,
2013-01-30 00:27:00,51.3,21.6,29.80,West,274,9.0,12.0,31,0.00,,,0.00,Wunderground v.1.15,2013-01-30 06:27:00,
2013-01-30 00:32:00,51.1,21.5,29.80,West,276,9.0,12.0,31,0.00,,,0.00,Wunderground v.1.15,2013-01-30 06:32:00,
2013-01-30 00:37:00,51.3,20.1,29.80,West,272,10.0,10.0,29,0.00,,,0.00,Wunderground v.1.15,2013-01-30 06:37:00,
2013-01-30 00:42:00,51.3,20.9,29.80,West,278,11.0,11.0,30,0.00,,,0.00,Wunderground v.1.15,2013-01-30 06:42:00,
2013-01-30 00:47:00,51.2,20.8,29.80,West,273,10.0,11.0,30,0.00,,,0.00,Wunderground v.1.15,2013-01-30 06:47:00,
2013-01-30 00:57:00,51.7,20.4,29.80,WNW,284,13.0,13.0,29,0.00,,,0.00,Wunderground v.1.15,2013-01-30 06:57:00,
2013-01-30 01:02:00,51.5,21.0,29.80,West,269,12.0,21.0,30,0.00,,,0.00,Wunderground v.1.15,2013-01-30 07:02:00,
2013-01-30 01:07:00,51.4,20.2,29.80,West,271,11.0,11.0,29,0.00,,,0.00,Wunderground v.1.15,2013-01-30 07:07:00,
2013-01-30 01:12:00,51.4,20.2,29.81,West,274,11.0,21.0,29,0.00,,,0.00,Wunderground v.1.15,2013-01-30 07:12:00,
2013-01-30 01:17:00,51.6,19.5,29.81,West,276,11.0,21.0,28,0.00,,,0.00,Wunderground v.1.15,2013-01-30 07:17:00,
2013-01-30 01:21:00,51.6,20.3,29.81,West,269,13.0,21.0,29,0.00,,,0.00,Wunderground v.1.15,2013-01-30 07:21:00,
2013-01-30 01:31:00,51.6,19.5,29.81,West,272,13.0,21.0,28,0.00,,,0.00,Wunderground v.1.15,2013-01-30 07:31:00,
2013-01-30 01:36:00,51.7,19.6,29.81,West,273,12.0,21.0,28,0.00,,,0.00,Wunderground v.1.15,2013-01-30 07:36:00,
2013-01-30 01:41:00,51.5,20.2,29.81,West,269,12.0,21.0,29,0.00,,,0.00,Wunderground v.1.15,2013-01-30 07:41:00,
2013-01-30 01:46:00,51.5,19.4,29.81,West,274,12.0,21.0,28,0.00,,,0.00,Wunderground v.1.15,2013-01-30 07:46:00,
2013-01-30 01:52:00,51.5,19.4,29.81,West,270,13.0,21.0,28,0.00,,,0.00,Wunderground v.1.15,2013-01-30 07:52:00,
2013-01-30 02:02:00,51.8,19.7,29.82,West,273,14.0,21.0,28,0.00,,,0.00,Wunderground v.1.15,2013-01-30 08:02:00,
2013-01-30 02:07:00,51.7,19.6,29.82,West,277,14.0,14.0,28,0.00,,,0.00,Wunderground v.1.15,2013-01-30 08:07:00,
2013-01-30 02:12:00,51.7,19.6,29.82,West,278,14.0,21.0,28,0.00,,,0.00,Wunderground v.1.15,2013-01-30 08:12:00,
2013-01-30 02:17:00,51.7,19.6,29.82,West,273,14.0,21.0,28,0.00,,,0.00,Wunderground v.1.15,2013-01-30 08:17:00,
2013-01-30 02:22:00,51.5,20.2,29.81,West,276,14.0,21.0,29,0.00,,,0.00,Wunderground v.1.15,2013-01-30 08:22:00,
2013-01-30 02:31:00,51.5,20.2,29.82,West,263,15.0,21.0,29,0.00,,,0.00,Wunderground v.1.15,2013-01-30 08:31:00,
2013-01-30 02:36:00,51.5,19.4,29.82,West,274,15.0,21.0,28,0.00,,,0.00,Wunderground v.1.15,2013-01-30 08:36:00,
2013-01-30 02:41:00,51.5,19.4,29.82,West,279,16.0,21.0,28,0.00,,,0.00,Wunderground v.1.15,2013-01-30 08:41:00,
2013-01-30 02:46:00,51.3,20.1,29.83,WSW,257,16.0,21.0,29,0.00,,,0.00,Wunderground v.1.15,2013-01-30 08:46:00,
2013-01-30 02:51:00,51.1,19.9,29.82,West,273,16.0,21.0,29,0.00,,,0.00,Wunderground v.1.15,2013-01-30 08:51:00,
2013-01-30 02:56:00,51.0,19.8,29.82,West,279,16.0,16.0,29,0.00,,,0.00,Wunderground v.1.15,2013-01-30 08:56:00,
2013-01-30 03:02:00,50.9,19.7,29.83,West,263,15.0,17.0,29,0.00,,,0.00,Wunderground v.1.15,2013-01-30 09:02:00,
2013-01-30 03:07:00,50.8,18.8,29.83,WNW,293,15.0,21.0,28,0.00,,,0.00,Wunderground v.1.15,2013-01-30 09:07:00,
2013-01-30 03:12:00,50.7,19.6,29.83,WNW,285,15.0,21.0,29,0.00,,,0.00,Wunderground v.1.15,2013-01-30 09:12:00,
2013-01-30 03:17:00,50.5,19.4,29.83,West,276,15.0,15.0,29,0.00,,,0.00,Wunderground v.1.15,2013-01-30 09:17:00,
2013-01-30 03:22:00,50.4,18.5,29.84,West,275,14.0,21.0,28,0.00,,,0.00,Wunderground v.1.15,2013-01-30 09:22:00,
2013-01-30 03:27:00,50.4,19.3,29.84,WNW,285,14.0,21.0,29,0.00,,,0.00,Wunderground v.1.15,2013-01-30 09:27:00,
2013-01-30 03:37:00,50.1,18.2,29.84,West,268,14.0,14.0,28,0.00,,,0.00,Wunderground v.1.15,2013-01-30 09:37:00,
2013-01-30 03:47:00,49.7,18.7,29.84,West,274,12.0,21.0,29,0.00,,,0.00,Wunderground v.1.15,2013-01-30 09:47:00,
2013-01-30 03:52:00,49.8,19.6,29.85,West,272,13.0,21.0,30,0.00,,,0.00,Wunderground v.1.15,2013-01-30 09:52:00,
2013-01-30 03:57:00,49.3,18.3,29.85,West,274,12.0,21.0,29,0.00,,,0.00,Wunderground v.1.15,2013-01-30 09:57:00,
2013-01-30 04:06:00,49.2,19.0,29.85,WSW,256,12.0,12.0,30,0.00,,,0.00,Wunderground v.1.15,2013-01-30 10:06:00,
2013-01-30 04:11:00,49.1,19.0,29.85,West,279,13.0,16.0,30,0.00,,,0.00,Wunderground v.1.15,2013-01-30 10:11:00,
2013-01-30 04:16:00,49.1,19.0,29.86,West,271,14.0,21.0,30,0.00,,,0.00,Wunderground v.1.15,2013-01-30 10:16:00,
2013-01-30 04:21:00,49.0,18.9,29.86,West,269,14.0,21.0,30,0.00,,,0.00,Wunderground v.1.15,2013-01-30 10:21:00,
2013-01-30 04:26:00,49.0,18.1,29.86,West,278,15.0,21.0,29,0.00,,,0.00,Wunderground v.1.15,2013-01-30 10:26:00,
2013-01-30 04:31:00,48.9,18.8,29.86,WSW,258,16.0,21.0,30,0.00,,,0.00,Wunderground v.1.15,2013-01-30 10:31:00,
2013-01-30 04:37:00,49.0,18.1,29.86,West,273,17.0,21.0,29,0.00,,,0.00,Wunderground v.1.15,2013-01-30 10:37:00,
2013-01-30 04:42:00,48.8,17.9,29.87,West,265,17.0,21.0,29,0.00,,,0.00,Wunderground v.1.15,2013-01-30 10:42:00,
2013-01-30 04:47:00,48.6,17.7,29.87,West,280,16.0,21.0,29,0.00,,,0.00,Wunderground v.1.15,2013-01-30 10:47:00,
2013-01-30 04:52:00,48.5,18.4,29.86,West,274,16.0,21.0,30,0.00,,,0.00,Wunderground v.1.15,2013-01-30 10:52:00,
2013-01-30 04:57:00,48.5,17.6,29.86,West,278,18.0,21.0,29,0.00,,,0.00,Wunderground v.1.15,2013-01-30 10:57:00,
2013-01-30 05:02:00,48.1,18.1,29.86,West,279,18.0,21.0,30,0.00,,,0.00,Wunderground v.1.15,2013-01-30 11:02:00,
2013-01-30 05:12:00,48.0,17.2,29.88,West,267,18.0,27.0,29,0.00,,,0.00,Wunderground v.1.15,2013-01-30 11:12:00,
2013-01-30 05:17:00,47.7,17.7,29.87,West,269,19.0,21.0,30,0.00,,,0.00,Wunderground v.1.15,2013-01-30 11:17:00,
2013-01-30 05:22:00,47.7,16.9,29.88,West,276,18.0,21.0,29,0.00,,,0.00,Wunderground v.1.15,2013-01-30 11:22:00,
2013-01-30 05:27:00,47.8,17.0,29.88,West,277,20.0,21.0,29,0.00,,,0.00,Wunderground v.1.15,2013-01-30 11:27:00,
2013-01-30 05:31:00,47.4,17.5,29.88,West,273,20.0,21.0,30,0.00,,,0.00,Wunderground v.1.15,2013-01-30 11:31:00,
2013-01-30 05:41:00,47.0,17.9,29.88,West,273,17.0,22.0,31,0.00,,,0.00,Wunderground v.1.15,2013-01-30 11:41:00,
2013-01-30 05:46:00,46.9,17.8,29.88,WNW,284,19.0,19.0,31,0.00,,,0.00,Wunderground v.1.15,2013-01-30 11:46:00,
2013-01-30 05:51:00,46.5,17.4,29.89,West,277,17.0,21.0,31,0.00,,,0.00,Wunderground v.1.15,2013-01-30 11:51:00,
2013-01-30 05:56:00,46.7,17.6,29.90,West,273,19.0,21.0,31,0.00,,,0.00,Wunderground v.1.15,2013-01-30 11:56:00,
2013-01-30 06:02:00,46.7,18.4,29.92,West,265,21.0,21.0,32,0.00,,,0.00,Wunderground v.1.15,2013-01-30 12:02:00,
2013-01-30 06:12:00,46.2,19.3,29.92,West,280,18.0,23.0,34,0.00,,,0.00,Wunderground v.1.15,2013-01-30 12:12:00,
2013-01-30 06:17:00,46.0,19.2,29.92,WNW,285,20.0,20.0,34,0.00,,,0.00,Wunderground v.1.15,2013-01-30 12:17:00,
2013-01-30 06:22:00,45.7,20.9,29.93,West,280,20.0,21.0,37,0.00,,,0.00,Wunderground v.1.15,2013-01-30 12:22:00,
2013-01-30 06:27:00,45.5,21.3,29.94,WNW,285,20.0,23.0,38,0.00,,,0.00,Wunderground v.1.15,2013-01-30 12:27:00,
2013-01-30 06:32:00,45.3,21.8,29.94,WNW,284,20.0,23.0,39,0.00,,,0.00,Wunderground v.1.15,2013-01-30 12:32:00,
2013-01-30 06:37:00,44.8,23.1,29.96,West,275,16.0,16.0,42,0.00,,,0.00,Wunderground v.1.15,2013-01-30 12:37:00,
2013-01-30 06:46:00,44.0,26.5,29.96,West,280,13.0,21.0,50,0.00,,,0.00,Wunderground v.1.15,2013-01-30 12:46:00,
2013-01-30 06:51:00,43.8,28.2,29.96,West,280,16.0,21.0,54,0.00,,,0.00,Wunderground v.1.15,2013-01-30 12:51:00,
2013-01-30 06:57:00,43.5,28.4,29.96,WNW,289,18.0,18.0,55,0.00,,,0.00,Wunderground v.1.15,2013-01-30 12:57:00,
2013-01-30 07:06:00,43.3,29.1,29.97,WNW,293,17.0,18.0,57,0.00,,,0.00,Wunderground v.1.15,2013-01-30 13:06:00,
2013-01-30 07:16:00,43.1,29.3,29.97,West,278,17.0,17.0,58,0.00,,,0.00,Wunderground v.1.15,2013-01-30 13:16:00,
2013-01-30 07:22:00,42.9,29.1,29.98,West,275,14.0,17.0,58,0.00,,,0.00,Wunderground v.1.15,2013-01-30 13:22:00,
2013-01-30 07:27:00,42.9,28.7,29.99,West,274,12.0,12.0,57,0.00,,,0.00,Wunderground v.1.15,2013-01-30 13:27:00,
2013-01-30 07:32:00,42.9,28.7,30.00,West,278,13.0,13.0,57,0.00,,,0.00,Wunderground v.1.15,2013-01-30 13:32:00,
2013-01-30 07:37:00,42.9,28.3,30.01,WNW,296,13.0,16.0,56,0.00,,,0.00,Wunderground v.1.15,2013-01-30 13:37:00,
2013-01-30 07:47:00,42.7,28.9,30.01,West,281,16.0,16.0,58,0.00,,,0.00,Wunderground v.1.15,2013-01-30 13:47:00,
2013-01-30 07:52:00,42.4,29.1,30.00,West,277,15.0,16.0,59,0.00,,,0.00,Wunderground v.1.15,2013-01-30 13:52:00,
2013-01-30 07:57:00,42.3,29.0,30.00,WNW,291,16.0,17.0,59,0.00,,,0.00,Wunderground v.1.15,2013-01-30 13:57:00,
2013-01-30 08:07:00,42.2,29.3,30.02,WNW,286,16.0,19.0,60,0.00,,,0.00,Wunderground v.1.15,2013-01-30 14:07:00,
2013-01-30 08:12:00,42.5,29.2,30.03,West,274,15.0,19.0,59,0.00,,,0.00,Wunderground v.1.15,2013-01-30 14:12:00,
2013-01-30 08:21:00,43.0,29.2,30.04,WNW,295,14.0,19.0,58,0.00,,,0.00,Wunderground v.1.15,2013-01-30 14:21:00,
2013-01-30 08:31:00,43.3,29.5,30.05,West,280,15.0,17.0,58,0.00,,,0.00,Wunderground v.1.15,2013-01-30 14:31:00,
2013-01-30 08:36:00,43.3,28.6,30.05,WNW,288,16.0,16.0,56,0.00,,,0.00,Wunderground v.1.15,2013-01-30 14:36:00,
2013-01-30 08:41:00,43.3,28.6,30.05,WNW,297,17.0,17.0,56,0.00,,,0.00,Wunderground v.1.15,2013-01-30 14:41:00,
2013-01-30 08:47:00,43.3,28.2,30.06,WNW,286,18.0,18.0,55,0.00,,,0.00,Wunderground v.1.15,2013-01-30 14:47:00,
2013-01-30 08:52:00,43.6,28.9,30.06,WNW,284,17.0,18.0,56,0.00,,,0.00,Wunderground v.1.15,2013-01-30 14:52:00,
2013-01-30 08:57:00,43.7,28.6,30.06,WNW,286,17.0,17.0,55,0.00,,,0.00,Wunderground v.1.15,2013-01-30 14:57:00,
2013-01-30 09:07:00,43.7,26.3,30.06,WNW,288,22.0,23.0,50,0.00,,,0.00,Wunderground v.1.15,2013-01-30 15:07:00,
2013-01-30 09:12:00,43.8,27.3,30.06,West,278,24.0,24.0,52,0.00,,,0.00,Wunderground v.1.15,2013-01-30 15:12:00,
2013-01-30 09:22:00,44.3,26.3,30.07,West,269,23.0,23.0,49,0.00,,,0.00,Wunderground v.1.15,2013-01-30 15:22:00,
2013-01-30 09:27:00,44.3,25.8,30.07,WNW,288,25.0,25.0,48,0.00,,,0.00,Wunderground v.1.15,2013-01-30 15:27:00,
2013-01-30 09:32:00,44.5,26.5,30.08,WNW,289,23.0,25.0,49,0.00,,,0.00,Wunderground v.1.15,2013-01-30 15:32:00,
2013-01-30 09:37:00,44.8,26.3,30.08,WNW,291,22.0,28.0,48,0.00,,,0.00,Wunderground v.1.15,2013-01-30 15:37:00,
2013-01-30 09:41:00,44.9,25.9,30.08,WNW,298,23.0,28.0,47,0.00,,,0.00,Wunderground v.1.15,2013-01-30 15:41:00,
2013-01-30 09:46:00,45.2,26.7,30.08,WNW,293,21.0,21.0,48,0.00,,,0.00,Wunderground v.1.15,2013-01-30 15:46:00,
2013-01-30 09:57:00,45.6,26.0,30.09,WNW,299,23.0,23.0,46,0.00,,,0.00,Wunderground v.1.15,2013-01-30 15:57:00,
2013-01-30 10:06:00,45.8,26.2,30.09,WNW,284,23.0,25.0,46,0.00,,,0.00,Wunderground v.1.15,2013-01-30 16:06:00,
2013-01-30 10:11:00,46.0,25.8,30.09,WNW,284,24.0,25.0,45,0.00,,,0.00,Wunderground v.1.15,2013-01-30 16:11:00,
2013-01-30 10:16:00,46.0,24.7,30.09,WNW,284,24.0,24.0,43,0.00,,,0.00,Wunderground v.1.15,2013-01-30 16:16:00,
2013-01-30 10:22:00,46.4,26.2,30.10,WNW,289,23.0,24.0,45,0.00,,,0.00,Wunderground v.1.15,2013-01-30 16:22:00,
2013-01-30 10:27:00,46.2,25.5,30.10,WNW,291,22.0,22.0,44,0.00,,,0.00,Wunderground v.1.15,2013-01-30 16:27:00,
2013-01-30 10:32:00,46.5,26.3,30.10,WNW,296,21.0,25.0,45,0.00,,,0.00,Wunderground v.1.15,2013-01-30 16:32:00,
2013-01-30 10:37:00,46.7,25.9,30.10,WNW,289,21.0,21.0,44,0.00,,,0.00,Wunderground v.1.15,2013-01-30 16:37:00,
2013-01-30 10:42:00,46.6,25.3,30.10,NW,306,22.0,22.0,43,0.00,,,0.00,Wunderground v.1.15,2013-01-30 16:42:00,
2013-01-30 10:47:00,46.7,24.2,30.10,West,281,22.0,27.0,41,0.00,,,0.00,Wunderground v.1.15,2013-01-30 16:47:00,
2013-01-30 10:57:00,46.7,24.2,30.11,WNW,297,24.0,24.0,41,0.00,,,0.00,Wunderground v.1.15,2013-01-30 16:57:00,
2013-01-30 11:07:00,47.7,24.5,30.11,WNW,294,21.0,21.0,40,0.00,,,0.00,Wunderground v.1.15,2013-01-30 17:07:00,
2013-01-30 11:12:00,47.5,24.3,30.11,WNW,292,21.0,23.0,40,0.00,,,0.00,Wunderground v.1.15,2013-01-30 17:12:00,
2013-01-30 11:17:00,47.4,24.3,30.11,WNW,295,22.0,22.0,40,0.00,,,0.00,Wunderground v.1.15,2013-01-30 17:17:00,
2013-01-30 11:22:00,47.4,24.9,30.11,WNW,284,22.0,22.0,41,0.00,,,0.00,Wunderground v.1.15,2013-01-30 17:22:00,
2013-01-30 11:31:00,48.0,25.4,30.11,WNW,297,19.0,20.0,41,0.00,,,0.00,Wunderground v.1.15,2013-01-30 17:31:00,
2013-01-30 11:36:00,48.5,25.2,30.11,NW,309,19.0,19.0,40,0.00,,,0.00,Wunderground v.1.15,2013-01-30 17:36:00,
2013-01-30 11:41:00,48.4,23.9,30.11,WNW,298,21.0,28.0,38,0.00,,,0.00,Wunderground v.1.15,2013-01-30 17:41:00,
2013-01-30 11:46:00,48.4,23.9,30.11,NW,316,23.0,23.0,38,0.00,,,0.00,Wunderground v.1.15,2013-01-30 17:46:00,
2013-01-30 11:51:00,48.2,23.1,30.11,WNW,299,23.0,23.0,37,0.00,,,0.00,Wunderground v.1.15,2013-01-30 17:51:00,
2013-01-30 11:57:00,48.3,23.8,30.11,WNW,295,22.0,28.0,38,0.00,,,0.00,Wunderground v.1.15,2013-01-30 17:57:00,
2013-01-30 12:06:00,48.5,23.4,30.12,WNW,285,23.0,23.0,37,0.00,,,0.00,Wunderground v.1.15,2013-01-30 18:06:00,
2013-01-30 12:12:00,48.8,23.6,30.12,WNW,284,22.0,23.0,37,0.00,,,0.00,Wunderground v.1.15,2013-01-30 18:12:00,
2013-01-30 12:17:00,48.7,22.9,30.12,West,276,22.0,22.0,36,0.00,,,0.00,Wunderground v.1.15,2013-01-30 18:17:00,
2013-01-30 12:22:00,49.6,24.4,30.11,WNW,295,22.0,25.0,37,0.00,,,0.00,Wunderground v.1.15,2013-01-30 18:22:00,
2013-01-30 12:32:00,49.3,22.8,30.11,NW,312,22.0,23.0,35,0.00,,,0.00,Wunderground v.1.15,2013-01-30 18:32:00,
2013-01-30 12:37:00,49.2,22.0,30.11,WNW,300,22.0,24.0,34,0.00,,,0.00,Wunderground v.1.15,2013-01-30 18:37:00,
2013-01-30 12:42:00,49.9,22.6,30.11,WNW,288,21.0,27.0,34,0.00,,,0.00,Wunderground v.1.15,2013-01-30 18:42:00,
2013-01-30 12:47:00,49.6,21.6,30.11,WNW,285,20.0,21.0,33,0.00,,,0.00,Wunderground v.1.15,2013-01-30 18:47:00,
2013-01-30 12:52:00,49.9,22.6,30.10,WNW,282,20.0,21.0,34,0.00,,,0.00,Wunderground v.1.15,2013-01-30 18:52:00,
2013-01-30 12:57:00,50.2,22.2,30.10,WNW,287,19.0,23.0,33,0.00,,,0.00,Wunderground v.1.15,2013-01-30 18:57:00,
2013-01-30 13:07:00,50.1,21.3,30.10,WNW,300,19.0,21.0,32,0.00,,,0.00,Wunderground v.1.15,2013-01-30 19:07:00,
2013-01-30 13:12:00,50.2,21.4,30.09,WNW,300,19.0,21.0,32,0.00,,,0.00,Wunderground v.1.15,2013-01-30 19:12:00,
2013-01-30 13:17:00,50.2,21.4,30.09,WNW,296,20.0,20.0,32,0.00,,,0.00,Wunderground v.1.15,2013-01-30 19:17:00,
2013-01-30 13:22:00,50.5,20.9,30.10,WNW,291,20.0,28.0,31,0.00,,,0.00,Wunderground v.1.15,2013-01-30 19:22:00,
2013-01-30 13:27:00,50.3,20.8,30.09,WNW,297,19.0,19.0,31,0.00,,,0.00,Wunderground v.1.15,2013-01-30 19:27:00,
2013-01-30 13:36:00,50.9,20.5,30.09,West,281,18.0,23.0,30,0.00,,,0.00,Wunderground v.1.15,2013-01-30 19:36:00,
2013-01-30 13:41:00,51.3,20.1,30.09,NW,307,19.0,23.0,29,0.00,,,0.00,Wunderground v.1.15,2013-01-30 19:41:00,
2013-01-30 13:46:00,51.4,20.2,30.09,WNW,303,19.0,19.0,29,0.00,,,0.00,Wunderground v.1.15,2013-01-30 19:46:00,
2013-01-30 13:51:00,51.6,21.9,30.09,WNW,291,18.0,19.0,31,0.00,,,0.00,Wunderground v.1.15,2013-01-30 19:51:00,
2013-01-30 13:57:00,52.0,19.9,30.09,WNW,290,17.0,29.0,28,0.00,,,0.00,Wunderground v.1.15,2013-01-30 19:57:00,
2013-01-30 14:06:00,51.7,20.4,30.09,WNW,293,20.0,20.0,29,0.00,,,0.00,Wunderground v.1.15,2013-01-30 20:06:00,
2013-01-30 14:11:00,52.2,20.0,30.08,West,279,17.0,20.0,28,0.00,,,0.00,Wunderground v.1.15,2013-01-30 20:11:00,
2013-01-30 14:16:00,52.1,20.8,30.09,WNW,295,17.0,18.0,29,0.00,,,0.00,Wunderground v.1.15,2013-01-30 20:16:00,
2013-01-30 14:21:00,51.9,18.9,30.08,West,279,19.0,20.0,27,0.00,,,0.00,Wunderground v.1.15,2013-01-30 20:21:00,
2013-01-30 14:26:00,52.3,20.9,30.08,WNW,295,18.0,21.0,29,0.00,,,0.00,Wunderground v.1.15,2013-01-30 20:26:00,
2013-01-30 14:31:00,52.2,19.2,30.08,West,279,19.0,21.0,27,0.00,,,0.00,Wunderground v.1.15,2013-01-30 20:31:00,
2013-01-30 14:41:00,52.1,19.1,30.09,WNW,288,19.0,21.0,27,0.00,,,0.00,Wunderground v.1.15,2013-01-30 20:41:00,
2013-01-30 14:46:00,52.2,16.4,30.08,NW,313,20.0,20.0,24,0.00,,,0.00,Wunderground v.1.15,2013-01-30 20:46:00,
2013-01-30 14:51:00,52.3,17.5,30.09,West,281,19.0,20.0,25,0.00,,,0.00,Wunderground v.1.15,2013-01-30 20:51:00,
2013-01-30 14:57:00,52.5,16.7,30.09,WNW,298,19.0,24.0,24,0.00,,,0.00,Wunderground v.1.15,2013-01-30 20:57:00,
2013-01-30 15:06:00,52.5,17.6,30.09,West,281,19.0,19.0,25,0.00,,,0.00,Wunderground v.1.15,2013-01-30 21:06:00,
2013-01-30 15:16:00,53.2,19.2,30.10,West,272,14.0,23.0,26,0.00,,,0.00,Wunderground v.1.15,2013-01-30 21:16:00,
2013-01-30 15:21:00,53.0,17.1,30.10,West,274,17.0,23.0,24,0.00,,,0.00,Wunderground v.1.15,2013-01-30 21:21:00,
2013-01-30 15:26:00,52.7,16.9,30.10,West,279,19.0,19.0,24,0.00,,,0.00,Wunderground v.1.15,2013-01-30 21:26:00,
2013-01-30 15:31:00,53.0,17.1,30.11,WNW,295,18.0,19.0,24,0.00,,,0.00,Wunderground v.1.15,2013-01-30 21:31:00,
2013-01-30 15:36:00,53.0,16.1,30.11,WNW,286,18.0,18.0,23,0.00,,,0.00,Wunderground v.1.15,2013-01-30 21:36:00,
2013-01-30 15:46:00,53.5,14.5,30.10,West,265,19.0,19.0,21,0.00,,,0.00,Wunderground v.1.15,2013-01-30 21:46:00,
2013-01-30 15:51:00,53.4,13.3,30.11,WNW,298,20.0,20.0,20,0.00,,,0.00,Wunderground v.1.15,2013-01-30 21:51:00,
2013-01-30 15:57:00,53.3,13.2,30.11,WNW,291,21.0,25.0,20,0.00,,,0.00,Wunderground v.1.15,2013-01-30 21:57:00,
2013-01-30 16:06:00,53.4,13.3,30.10,WNW,292,17.0,18.0,20,0.00,,,0.00,Wunderground v.1.15,2013-01-30 22:06:00,
2013-01-30 16:12:00,53.4,13.3,30.09,WNW,288,16.0,18.0,20,0.00,,,0.00,Wunderground v.1.15,2013-01-30 22:12:00,
2013-01-30 16:21:00,53.1,13.0,30.09,West,279,19.0,19.0,20,0.00,,,0.00,Wunderground v.1.15,2013-01-30 22:21:00,
2013-01-30 16:26:00,53.3,12.0,30.10,WNW,299,19.0,19.0,19,0.00,,,0.00,Wunderground v.1.15,2013-01-30 22:26:00,
2013-01-30 16:31:00,53.2,11.9,30.10,West,279,19.0,19.0,19,0.00,,,0.00,Wunderground v.1.15,2013-01-30 22:31:00,
2013-01-30 16:36:00,53.4,12.1,30.09,West,275,18.0,22.0,19,0.00,,,0.00,Wunderground v.1.15,2013-01-30 22:36:00,
2013-01-30 16:41:00,53.2,13.1,30.10,WNW,302,17.0,22.0,20,0.00,,,0.00,Wunderground v.1.15,2013-01-30 22:41:00,
2013-01-30 16:51:00,53.1,13.0,30.10,WNW,286,16.0,18.0,20,0.00,,,0.00,Wunderground v.1.15,2013-01-30 22:51:00,
2013-01-30 16:57:00,53.2,14.2,30.10,WNW,298,15.0,17.0,21,0.00,,,0.00,Wunderground v.1.15,2013-01-30 22:57:00,
2013-01-30 17:06:00,53.1,13.0,30.11,WNW,295,15.0,15.0,20,0.00,,,0.00,Wunderground v.1.15,2013-01-30 23:06:00,
2013-01-30 17:11:00,52.9,12.9,30.11,NW,305,14.0,16.0,20,0.00,,,0.00,Wunderground v.1.15,2013-01-30 23:11:00,
2013-01-30 17:16:00,52.8,12.8,30.11,West,279,15.0,18.0,20,0.00,,,0.00,Wunderground v.1.15,2013-01-30 23:16:00,
2013-01-30 17:26:00,52.6,11.4,30.12,WNW,291,15.0,17.0,19,0.00,,,0.00,Wunderground v.1.15,2013-01-30 23:26:00,
2013-01-30 17:31:00,52.5,11.4,30.12,West,281,16.0,17.0,19,0.00,,,0.00,Wunderground v.1.15,2013-01-30 23:31:00,
2013-01-30 17:36:00,52.5,11.4,30.12,West,276,15.0,15.0,19,0.00,,,0.00,Wunderground v.1.15,2013-01-30 23:36:00,
2013-01-30 17:41:00,52.3,11.2,30.12,WNW,283,13.0,15.0,19,0.00,,,0.00,Wunderground v.1.15,2013-01-30 23:41:00,
2013-01-30 17:46:00,52.2,12.3,30.12,WNW,286,13.0,14.0,20,0.00,,,0.00,Wunderground v.1.15,2013-01-30 23:46:00,
2013-01-30 17:57:00,51.4,12.7,30.12,West,279,10.0,14.0,21,0.00,,,0.00,Wunderground v.1.15,2013-01-30 23:57:00,
2013-01-30 18:06:00,50.5,13.0,30.12,WNW,291,10.0,10.0,22,0.00,,,0.00,Wunderground v.1.15,2013-01-31 00:06:00,
2013-01-30 18:11:00,49.9,12.5,30.13,WNW,298,8.0,10.0,22,0.00,,,0.00,Wunderground v.1.15,2013-01-31 00:11:00,
2013-01-30 18:16:00,49.5,13.2,30.13,WNW,289,7.0,7.0,23,0.00,,,0.00,Wunderground v.1.15,2013-01-31 00:16:00,
2013-01-30 18:21:00,49.1,12.8,30.13,WNW,292,7.0,7.0,23,0.00,,,0.00,Wunderground v.1.15,2013-01-31 00:21:00,
2013-01-30 18:31:00,48.2,13.0,30.13,WNW,287,5.0,6.0,24,0.00,,,0.00,Wunderground v.1.15,2013-01-31 00:31:00,
2013-01-30 18:36:00,47.9,13.7,30.14,WNW,284,5.0,5.0,25,0.00,,,0.00,Wunderground v.1.15,2013-01-31 00:36:00,
2013-01-30 18:41:00,47.8,13.6,30.14,West,281,4.0,5.0,25,0.00,,,0.00,Wunderground v.1.15,2013-01-31 00:41:00,
2013-01-30 18:46:00,47.7,14.4,30.15,West,267,5.0,5.0,26,0.00,,,0.00,Wunderground v.1.15,2013-01-31 00:46:00,
2013-01-30 18:51:00,47.6,14.3,30.15,West,260,5.0,5.0,26,0.00,,,0.00,Wunderground v.1.15,2013-01-31 00:51:00,
2013-01-30 18:57:00,47.7,14.4,30.15,West,267,5.0,6.0,26,0.00,,,0.00,Wunderground v.1.15,2013-01-31 00:57:00,
2013-01-30 19:06:00,47.2,14.9,30.16,West,260,5.0,5.0,27,0.00,,,0.00,Wunderground v.1.15,2013-01-31 01:06:00,
2013-01-30 19:12:00,46.7,15.3,30.15,West,268,4.0,5.0,28,0.00,,,0.00,Wunderground v.1.15,2013-01-31 01:12:00,
2013-01-30 19:17:00,45.8,15.3,30.15,West,269,3.0,3.0,29,0.00,,,0.00,Wunderground v.1.15,2013-01-31 01:17:00,
2013-01-30 19:22:00,45.7,15.2,30.15,WNW,286,2.0,4.0,29,0.00,,,0.00,Wunderground v.1.15,2013-01-31 01:22:00,
2013-01-30 19:32:00,45.2,14.8,30.16,West,269,4.0,6.0,29,0.00,,,0.00,Wunderground v.1.15,2013-01-31 01:32:00,
2013-01-30 19:37:00,45.6,15.1,30.17,West,271,5.0,5.0,29,0.00,,,0.00,Wunderground v.1.15,2013-01-31 01:37:00,
2013-01-30 19:42:00,45.4,14.9,30.16,West,272,5.0,5.0,29,0.00,,,0.00,Wunderground v.1.15,2013-01-31 01:42:00,
2013-01-30 19:47:00,45.3,14.9,30.16,West,272,5.0,5.0,29,0.00,,,0.00,Wunderground v.1.15,2013-01-31 01:47:00,
2013-01-30 19:52:00,45.3,14.9,30.17,West,271,4.0,5.0,29,0.00,,,0.00,Wunderground v.1.15,2013-01-31 01:52:00,
2013-01-30 19:57:00,45.5,15.0,30.17,West,271,4.0,4.0,29,0.00,,,0.00,Wunderground v.1.15,2013-01-31 01:57:00,
2013-01-30 20:06:00,45.3,14.9,30.17,West,272,4.0,8.0,29,0.00,,,0.00,Wunderground v.1.15,2013-01-31 02:06:00,
2013-01-30 20:11:00,45.5,14.2,30.17,West,272,5.0,8.0,28,0.00,,,0.00,Wunderground v.1.15,2013-01-31 02:11:00,
2013-01-30 20:16:00,45.5,14.2,30.17,West,272,5.0,8.0,28,0.00,,,0.00,Wunderground v.1.15,2013-01-31 02:16:00,
2013-01-30 20:22:00,45.3,14.9,30.17,West,271,5.0,8.0,29,0.00,,,0.00,Wunderground v.1.15,2013-01-31 02:22:00,
2013-01-30 20:26:00,44.9,14.5,30.17,West,271,4.0,4.0,29,0.00,,,0.00,Wunderground v.1.15,2013-01-31 02:26:00,
2013-01-30 20:36:00,45.3,14.1,30.17,WSW,245,4.0,8.0,28,0.00,,,0.00,Wunderground v.1.15,2013-01-31 02:36:00,
2013-01-30 20:41:00,45.6,14.3,30.17,West,260,5.0,8.0,28,0.00,,,0.00,Wunderground v.1.15,2013-01-31 02:41:00,
2013-01-30 20:46:00,45.8,13.7,30.17,West,265,6.0,6.0,27,0.00,,,0.00,Wunderground v.1.15,2013-01-31 02:46:00,
2013-01-30 20:51:00,45.4,14.9,30.17,West,265,5.0,8.0,29,0.00,,,0.00,Wunderground v.1.15,2013-01-31 02:51:00,
2013-01-30 20:56:00,45.2,14.0,30.17,West,265,4.0,4.0,28,0.00,,,0.00,Wunderground v.1.15,2013-01-31 02:56:00,
2013-01-30 21:01:00,45.5,13.4,30.18,West,263,3.0,8.0,27,0.00,,,0.00,Wunderground v.1.15,2013-01-31 03:01:00,
2013-01-30 21:11:00,44.6,15.8,30.18,SE,146,2.0,8.0,31,0.00,,,0.00,Wunderground v.1.15,2013-01-31 03:11:00,
2013-01-30 21:16:00,42.5,15.4,30.18,SSE,147,1.0,1.0,33,0.00,,,0.00,Wunderground v.1.15,2013-01-31 03:16:00,
2013-01-30 21:21:00,41.9,14.8,30.19,South,176,0.0,8.0,33,0.00,,,0.00,Wunderground v.1.15,2013-01-31 03:21:00,
2013-01-30 21:26:00,41.1,17.4,30.18,South,176,0.0,8.0,38,0.00,,,0.00,Wunderground v.1.15,2013-01-31 03:26:00,
2013-01-30 21:31:00,40.2,16.6,30.18,SSW,198,0.0,8.0,38,0.00,,,0.00,Wunderground v.1.15,2013-01-31 03:31:00,
2013-01-30 21:37:00,39.8,15.6,30.18,SSW,198,1.0,8.0,37,0.00,,,0.00,Wunderground v.1.15,2013-01-31 03:37:00,
2013-01-30 21:42:00,39.7,15.5,30.18,SSW,198,1.0,8.0,37,0.00,,,0.00,Wunderground v.1.15,2013-01-31 03:42:00,
2013-01-30 21:51:00,38.5,16.2,30.18,South,183,1.0,8.0,40,0.00,,,0.00,Wunderground v.1.15,2013-01-31 03:51:00,
2013-01-30 21:56:00,38.9,16.6,30.19,South,183,2.0,2.0,40,0.00,,,0.00,Wunderground v.1.15,2013-01-31 03:56:00,
2013-01-30 22:01:00,39.2,16.9,30.19,South,183,2.0,8.0,40,0.00,,,0.00,Wunderground v.1.15,2013-01-31 04:01:00,
2013-01-30 22:06:00,39.3,16.4,30.18,South,184,1.0,8.0,39,0.00,,,0.00,Wunderground v.1.15,2013-01-31 04:06:00,
2013-01-30 22:12:00,40.2,14.7,30.18,South,191,1.0,8.0,35,0.00,,,0.00,Wunderground v.1.15,2013-01-31 04:12:00,
2013-01-30 22:17:00,41.6,14.6,30.19,SSW,201,2.0,8.0,33,0.00,,,0.00,Wunderground v.1.15,2013-01-31 04:17:00,
2013-01-30 22:22:00,42.6,14.8,30.19,South,190,4.0,8.0,32,0.00,,,0.00,Wunderground v.1.15,2013-01-31 04:22:00,
2013-01-30 22:27:00,41.6,14.6,30.19,South,186,4.0,8.0,33,0.00,,,0.00,Wunderground v.1.15,2013-01-31 04:27:00,
2013-01-30 22:32:00,40.4,16.1,30.19,South,191,6.0,8.0,37,0.00,,,0.00,Wunderground v.1.15,2013-01-31 04:32:00,
2013-01-30 22:37:00,39.5,17.1,30.19,SSW,197,8.0,8.0,40,0.00,,,0.00,Wunderground v.1.15,2013-01-31 04:37:00,
2013-01-30 22:46:00,39.7,15.5,30.19,South,190,6.0,8.0,37,0.00,,,0.00,Wunderground v.1.15,2013-01-31 04:46:00,
2013-01-30 22:51:00,40.3,16.1,30.20,South,188,6.0,8.0,37,0.00,,,0.00,Wunderground v.1.15,2013-01-31 04:51:00,
2013-01-30 22:56:00,39.9,16.3,30.20,South,187,6.0,6.0,38,0.00,,,0.00,Wunderground v.1.15,2013-01-31 04:56:00,
2013-01-30 23:06:00,38.8,18.2,30.20,South,191,5.0,5.0,43,0.00,,,0.00,Wunderground v.1.15,2013-01-31 05:06:00,
2013-01-30 23:11:00,36.9,18.0,30.20,South,182,3.0,8.0,46,0.00,,,0.00,Wunderground v.1.15,2013-01-31 05:11:00,
2013-01-30 23:17:00,36.3,17.5,30.21,South,184,2.0,8.0,46,0.00,,,0.00,Wunderground v.1.15,2013-01-31 05:17:00,
2013-01-30 23:22:00,35.9,17.6,30.20,SSW,208,2.0,8.0,47,0.00,,,0.00,Wunderground v.1.15,2013-01-31 05:22:00,
2013-01-30 23:27:00,36.1,16.8,30.21,South,191,2.0,8.0,45,0.00,,,0.00,Wunderground v.1.15,2013-01-31 05:27:00,
2013-01-30 23:32:00,38.3,16.1,30.20,South,190,4.0,8.0,40,0.00,,,0.00,Wunderground v.1.15,2013-01-31 05:32:00,
2013-01-30 23:37:00,39.2,15.7,30.20,SSW,194,6.0,6.0,38,0.00,,,0.00,Wunderground v.1.15,2013-01-31 05:37:00,
2013-01-30 23:42:00,39.4,15.9,30.21,South,189,5.0,8.0,38,0.00,,,0.00,Wunderground v.1.15,2013-01-31 05:42:00,
2013-01-30 23:51:00,40.2,15.3,30.21,South,189,6.0,8.0,36,0.00,,,0.00,Wunderground v.1.15,2013-01-31 05:51:00,
2013-01-30 23:57:00,40.2,15.3,30.21,SSW,199,5.0,5.0,36,0.00,,,0.00,Wunderground v.1.15,2013-01-31 05:57:00,